Marianne Danica — OWWO2 — position and weather

sailwx.info

Track history (hours):
 
Tides and Currents Weather Stations Pressure Air Temp Water Temp Dewpoint Dewpoint Depression Visibility Wind Speed Wind Dir Waves Ship Positions

Marianne Danica

Last reported at 2015-May-22 19:33 UTC. Time now 2015-May-24 15:16 UTC.
Position N 36°36' E 014°37'.

Length 71 m; draft 3.5 m.

Type: Ship (hazmat cat A). MMSI: 219544000.

Date/timePositionNaut miles runAvg speedWind from/ knotsBaromVisibWave heightAir tempDewpointWater temp
2015-May-22 19:33N 36°36' E 014°37'1211.9
2015-May-22 18:32N 36°42' E 014°24'1111.4
2015-May-22 17:33N 36°48' E 014°12'1111.0
2015-May-22 16:33N 36°53' E 013°60'1111.1
2015-May-22 15:33N 36°58' E 013°47'10311.1
2015-May-22 06:14N 37°43' E 011°50'13311.4
2015-May-21 18:30N 38°56' E 009°28'1111.5
2015-May-21 17:33N 39°02' E 009°17'1111.0
2015-May-21 16:33N 39°09' E 009°06'4 4.2
2015-May-21 15:31N 39°13' E 009°03'0 0.0
2015-May-21 14:28N 39°13' E 009°03'0 0.0
2015-May-21 13:31N 39°13' E 009°03'0 0.0
2015-May-21 12:31N 39°13' E 009°03'0 0.0
2015-May-21 11:31N 39°13' E 009°03'0 0.0
2015-May-21 10:31N 39°13' E 009°03'0 0.0
2015-May-21 09:31N 39°13' E 009°03'0 0.0
2015-May-21 08:31N 39°13' E 009°03'0 0.0
2015-May-21 07:31N 39°13' E 009°03'0 0.0
2015-May-21 06:31N 39°13' E 009°03'1 0.9
2015-May-21 05:33N 39°13' E 009°05'2 2.3
2015-May-21 04:31N 39°10' E 009°05'0 0.0
2015-May-21 03:31N 39°10' E 009°05'0 0.0
2015-May-21 02:31N 39°10' E 009°05'0 0.0
2015-May-21 01:31N 39°10' E 009°05'0 0.0
2015-May-21 00:31N 39°10' E 009°05'0 0.0
2015-May-20 23:31N 39°10' E 009°05'0 0.0
2015-May-20 22:31N 39°10' E 009°05'0 0.0
2015-May-20 21:31N 39°10' E 009°05'0 0.0
2015-May-20 20:31N 39°10' E 009°05'0 0.0
2015-May-20 19:31N 39°10' E 009°05'0 0.0
2015-May-20 18:31N 39°10' E 009°05'0 0.0
2015-May-20 17:31N 39°10' E 009°05'0 0.0
2015-May-20 16:31N 39°10' E 009°05'0 0.0
2015-May-20 15:31N 39°10' E 009°05'0 0.0
2015-May-20 14:31N 39°10' E 009°05'0 0.0
2015-May-20 13:31N 39°10' E 009°05'0 0.0
2015-May-20 12:33N 39°10' E 009°05'8 7.9
2015-May-20 11:33N 39°06' E 009°13'9 9.0
2015-May-20 10:33N 39°01' E 009°23'10 9.8
2015-May-20 09:33N 38°58' E 009°35'7 6.6
2015-May-20 08:33N 39°01' E 009°42'24 9.8
2015-May-20 06:09N 39°24' E 009°49'17710.6
2015-May-19 13:25N 42°17' E 010°37'28 9.5
2015-May-19 10:27N 42°33' E 011°09'0 0.0
2015-May-19 09:20N 42°33' E 011°09'0 0.0
2015-May-19 08:29N 42°33' E 011°09'0 0.0
2015-May-19 07:29N 42°33' E 011°09'0 0.0
2015-May-19 06:23N 42°33' E 011°09'0 0.0
2015-May-19 05:23N 42°33' E 011°09'0 0.0
2015-May-18 20:23N 42°33' E 011°09'0 0.0
2015-May-18 16:28N 42°33' E 011°09'15 3.4
2015-May-18 12:15N 42°29' E 010°50'6 0.9
2015-May-18 06:26N 42°26' E 010°44'3 3.7
2015-May-18 05:33N 42°23' E 010°42'  
2015-May-14 13:29N 39°18' E 009°46'14 7.2
2015-May-14 11:32N 39°04' E 009°43'22 6.6
2015-May-14 08:08N 38°50' E 009°20'4 6.9
2015-May-14 07:32N 38°49' E 009°15'8 7.5
2015-May-14 06:32N 38°46' E 009°06'1010.0
2015-May-14 05:33N 38°41' E 008°55'1010.4
2015-May-14 04:32N 38°38' E 008°42'137 9.8
2015-May-13 14:33N 37°56' E 005°55'10 9.4
2015-May-13 13:31N 37°54' E 005°43'10 9.3
2015-May-13 12:28N 37°52' E 005°31'9 9.4
2015-May-13 11:32N 37°49' E 005°21'9 9.6
2015-May-13 10:33N 37°47' E 005°09'1010.0
2015-May-13 09:31N 37°44' E 004°56'1010.0
2015-May-13 08:32N 37°41' E 004°44'1010.0
2015-May-13 07:30N 37°38' E 004°32'13 9.9
2015-May-13 06:09N 37°34' E 004°16'610.0
2015-May-13 05:32N 37°33' E 004°08'1010.1
2015-May-13 04:33N 37°30' E 003°56'1410.3
2015-May-13 03:13N 37°27' E 003°39'1010.3
2015-May-13 02:16N 37°26' E 003°27'1010.0
2015-May-13 01:15N 37°24' E 003°15'7 9.6
2015-May-13 00:33N 37°22' E 003°06'10 9.6
2015-May-12 23:32N 37°20' E 002°54'9 9.7
2015-May-12 22:33N 37°18' E 002°43'10 9.6
2015-May-12 21:33N 37°15' E 002°31'1010.0
2015-May-12 20:33N 37°11' E 002°19'1212.2
2015-May-12 19:33N 37°08' E 002°05'  
Track history (hours):
 
Tides and Currents Weather Stations Pressure Air Temp Water Temp Dewpoint Dewpoint Depression Visibility Wind Speed Wind Dir Waves Ship Positions

Marianne Danica

Last reported at 2015-May-22 19:33 UTC. Time now 2015-May-24 15:16 UTC.
Position N 36°36' E 014°37'.

Length 71 m; draft 3.5 m.

Type: Ship (hazmat cat A). MMSI: 219544000.

Date/timePositionNaut miles runAvg speedWind from/ knotsBaromVisibWave heightAir tempDewpointWater temp
2015-May-22 19:33N 36°36' E 014°37'1211.9
2015-May-22 18:32N 36°42' E 014°24'1111.4
2015-May-22 17:33N 36°48' E 014°12'1111.0
2015-May-22 16:33N 36°53' E 013°60'1111.1
2015-May-22 15:33N 36°58' E 013°47'10311.1
2015-May-22 06:14N 37°43' E 011°50'13311.4
2015-May-21 18:30N 38°56' E 009°28'1111.5
2015-May-21 17:33N 39°02' E 009°17'1111.0
2015-May-21 16:33N 39°09' E 009°06'4 4.2
2015-May-21 15:31N 39°13' E 009°03'0 0.0
2015-May-21 14:28N 39°13' E 009°03'0 0.0
2015-May-21 13:31N 39°13' E 009°03'0 0.0
2015-May-21 12:31N 39°13' E 009°03'0 0.0
2015-May-21 11:31N 39°13' E 009°03'0 0.0
2015-May-21 10:31N 39°13' E 009°03'0 0.0
2015-May-21 09:31N 39°13' E 009°03'0 0.0
2015-May-21 08:31N 39°13' E 009°03'0 0.0
2015-May-21 07:31N 39°13' E 009°03'0 0.0
2015-May-21 06:31N 39°13' E 009°03'1 0.9
2015-May-21 05:33N 39°13' E 009°05'2 2.3
2015-May-21 04:31N 39°10' E 009°05'0 0.0
2015-May-21 03:31N 39°10' E 009°05'0 0.0
2015-May-21 02:31N 39°10' E 009°05'0 0.0
2015-May-21 01:31N 39°10' E 009°05'0 0.0
2015-May-21 00:31N 39°10' E 009°05'0 0.0
2015-May-20 23:31N 39°10' E 009°05'0 0.0
2015-May-20 22:31N 39°10' E 009°05'0 0.0
2015-May-20 21:31N 39°10' E 009°05'0 0.0
2015-May-20 20:31N 39°10' E 009°05'0 0.0
2015-May-20 19:31N 39°10' E 009°05'0 0.0
2015-May-20 18:31N 39°10' E 009°05'0 0.0
2015-May-20 17:31N 39°10' E 009°05'0 0.0
2015-May-20 16:31N 39°10' E 009°05'0 0.0
2015-May-20 15:31N 39°10' E 009°05'0 0.0
2015-May-20 14:31N 39°10' E 009°05'0 0.0
2015-May-20 13:31N 39°10' E 009°05'0 0.0
2015-May-20 12:33N 39°10' E 009°05'8 7.9
2015-May-20 11:33N 39°06' E 009°13'9 9.0
2015-May-20 10:33N 39°01' E 009°23'10 9.8
2015-May-20 09:33N 38°58' E 009°35'7 6.6
2015-May-20 08:33N 39°01' E 009°42'24 9.8
2015-May-20 06:09N 39°24' E 009°49'17710.6
2015-May-19 13:25N 42°17' E 010°37'28 9.5
2015-May-19 10:27N 42°33' E 011°09'0 0.0
2015-May-19 09:20N 42°33' E 011°09'0 0.0
2015-May-19 08:29N 42°33' E 011°09'0 0.0
2015-May-19 07:29N 42°33' E 011°09'0 0.0
2015-May-19 06:23N 42°33' E 011°09'0 0.0
2015-May-19 05:23N 42°33' E 011°09'0 0.0
2015-May-18 20:23N 42°33' E 011°09'0 0.0
2015-May-18 16:28N 42°33' E 011°09'15 3.4
2015-May-18 12:15N 42°29' E 010°50'6 0.9
2015-May-18 06:26N 42°26' E 010°44'3 3.7
2015-May-18 05:33N 42°23' E 010°42'  
2015-May-14 13:29N 39°18' E 009°46'14 7.2
2015-May-14 11:32N 39°04' E 009°43'22 6.6
2015-May-14 08:08N 38°50' E 009°20'4 6.9
2015-May-14 07:32N 38°49' E 009°15'8 7.5
2015-May-14 06:32N 38°46' E 009°06'1010.0
2015-May-14 05:33N 38°41' E 008°55'1010.4
2015-May-14 04:32N 38°38' E 008°42'137 9.8
2015-May-13 14:33N 37°56' E 005°55'10 9.4
2015-May-13 13:31N 37°54' E 005°43'10 9.3
2015-May-13 12:28N 37°52' E 005°31'9 9.4
2015-May-13 11:32N 37°49' E 005°21'9 9.6
2015-May-13 10:33N 37°47' E 005°09'1010.0
2015-May-13 09:31N 37°44' E 004°56'1010.0
2015-May-13 08:32N 37°41' E 004°44'1010.0
2015-May-13 07:30N 37°38' E 004°32'13 9.9
2015-May-13 06:09N 37°34' E 004°16'610.0
2015-May-13 05:32N 37°33' E 004°08'1010.1
2015-May-13 04:33N 37°30' E 003°56'1410.3
2015-May-13 03:13N 37°27' E 003°39'1010.3
2015-May-13 02:16N 37°26' E 003°27'1010.0
2015-May-13 01:15N 37°24' E 003°15'7 9.6
2015-May-13 00:33N 37°22' E 003°06'10 9.6
2015-May-12 23:32N 37°20' E 002°54'9 9.7
2015-May-12 22:33N 37°18' E 002°43'10 9.6
2015-May-12 21:33N 37°15' E 002°31'1010.0
2015-May-12 20:33N 37°11' E 002°19'1212.2
2015-May-12 19:33N 37°08' E 002°05'  

Dump ship's entire track history